createdAt,value
2019-03-19T00:00:55.741Z,98631.16
2019-03-19T00:01:58.974Z,98637.00
2019-03-19T00:03:01.990Z,98633.99
2019-03-19T00:04:05.210Z,98633.99
2019-03-19T00:05:08.076Z,98632.43
2019-03-19T00:06:10.898Z,98637.17
2019-03-19T00:07:14.459Z,98632.89
2019-03-19T00:08:17.348Z,98628.87
2019-03-19T00:09:20.183Z,98637.00
2019-03-19T00:10:25.321Z,98638.83
2019-03-19T00:11:28.163Z,98641.70
2019-03-19T00:12:30.980Z,98641.70
2019-03-19T00:13:34.152Z,98637.37
2019-03-19T00:14:36.974Z,98637.08
2019-03-19T00:15:39.791Z,98639.45
2019-03-19T00:16:42.623Z,98643.75
2019-03-19T00:17:45.558Z,98642.16
2019-03-19T00:18:48.382Z,98648.11
2019-03-19T00:19:53.071Z,98641.30
2019-03-19T00:20:55.885Z,98655.33
2019-03-19T00:21:58.764Z,98654.18
2019-03-19T00:23:01.767Z,98661.00
2019-03-19T00:24:04.640Z,98662.28
2019-03-19T00:25:07.437Z,98666.48
2019-03-19T00:26:10.561Z,98666.48
2019-03-19T00:27:13.382Z,98667.79
2019-03-19T00:28:16.699Z,98676.50
2019-03-19T00:29:19.720Z,98671.72
2019-03-19T00:30:22.558Z,98662.09
2019-03-19T00:31:26.410Z,98668.05
2019-03-19T00:32:29.906Z,98668.98
2019-03-19T00:33:32.822Z,98668.98
2019-03-19T00:34:36.075Z,98672.80
2019-03-19T00:35:38.980Z,98673.59
2019-03-19T00:36:41.836Z,98673.50
2019-03-19T00:37:44.647Z,98673.50
2019-03-19T00:38:47.772Z,98673.01
2019-03-19T00:39:50.686Z,98673.01
2019-03-19T00:40:53.541Z,98672.89
2019-03-19T00:41:58.005Z,98673.44
2019-03-19T00:43:00.811Z,98670.75
2019-03-19T00:44:03.649Z,98670.75
2019-03-19T00:45:07.139Z,98672.64
2019-03-19T00:46:09.939Z,98672.64
2019-03-19T00:47:12.838Z,98668.91
2019-03-19T00:48:15.656Z,98668.59
2019-03-19T00:49:18.485Z,98665.63
2019-03-19T00:50:22.304Z,98670.14
2019-03-19T00:51:25.413Z,98667.53
2019-03-19T00:52:28.290Z,98667.53
2019-03-19T00:53:31.109Z,98673.11
2019-03-19T00:54:34.021Z,98671.12
2019-03-19T00:55:40.965Z,98671.12
2019-03-19T00:56:41.735Z,98671.12
2019-03-19T00:57:44.865Z,98664.44
2019-03-19T00:58:47.781Z,98681.28
2019-03-19T00:59:52.829Z,98672.96
2019-03-19T01:00:55.633Z,98672.30
2019-03-19T01:01:58.513Z,98669.30
2019-03-19T01:03:01.399Z,98677.62
2019-03-19T01:04:04.873Z,98677.62
2019-03-19T01:05:07.702Z,98667.01
2019-03-19T01:06:10.528Z,98667.01
2019-03-19T01:07:13.403Z,98666.55
2019-03-19T01:08:16.577Z,98674.19
2019-03-19T01:09:19.755Z,98672.48
2019-03-19T01:10:22.865Z,98678.95
2019-03-19T01:11:26.767Z,98678.95
2019-03-19T01:12:29.583Z,98678.12
2019-03-19T01:13:32.524Z,98688.23
2019-03-19T01:14:35.398Z,98688.23
2019-03-19T01:15:38.225Z,98692.21
2019-03-19T01:16:41.113Z,98693.34
2019-03-19T01:17:44.288Z,98697.97
2019-03-19T01:18:47.223Z,98703.20
2019-03-19T01:19:50.467Z,98704.28
2019-03-19T01:20:53.309Z,98704.28
2019-03-19T01:21:56.133Z,98701.02
2019-03-19T01:22:59.276Z,98697.72
2019-03-19T01:24:02.185Z,98696.14
2019-03-19T01:25:05.001Z,98690.95
2019-03-19T01:26:08.282Z,98690.95
2019-03-19T01:27:11.201Z,98695.20
2019-03-19T01:28:14.103Z,98698.87
2019-03-19T01:29:17.296Z,98692.36
2019-03-19T01:30:20.127Z,98699.12
2019-03-19T01:31:22.972Z,98699.12
2019-03-19T01:32:26.156Z,98708.48
2019-03-19T01:33:29.068Z,98699.38
2019-03-19T01:34:31.943Z,98694.23
2019-03-19T01:35:35.077Z,98702.84
2019-03-19T01:36:40.931Z,98698.93
2019-03-19T01:37:44.153Z,98689.08
2019-03-19T01:38:47.106Z,98689.08
2019-03-19T01:39:50.372Z,98690.34
2019-03-19T01:40:53.267Z,98691.38
2019-03-19T01:41:56.367Z,98688.20
2019-03-19T01:42:59.260Z,98688.20
2019-03-19T01:44:02.163Z,98696.69
2019-03-19T01:45:06.546Z,98696.69
2019-03-19T01:46:09.395Z,98701.08
2019-03-19T01:47:12.218Z,98707.00
2019-03-19T01:48:15.369Z,98707.00
2019-03-19T01:49:18.187Z,98701.20
2019-03-19T01:50:21.108Z,98701.20
2019-03-19T01:51:23.948Z,98702.80
2019-03-19T01:52:26.881Z,98697.71
2019-03-19T01:53:32.249Z,98697.71
2019-03-19T01:54:38.396Z,98695.58
2019-03-19T01:55:41.217Z,98695.58
2019-03-19T01:56:44.164Z,98694.02
2019-03-19T01:57:47.005Z,98690.37
2019-03-19T01:58:51.093Z,98693.66
2019-03-19T01:59:54.443Z,98693.66
2019-03-19T02:00:57.588Z,98702.95
2019-03-19T02:02:00.403Z,98702.53
2019-03-19T02:03:03.300Z,98698.02
2019-03-19T02:04:06.121Z,98695.26
2019-03-19T02:05:09.002Z,98697.72
2019-03-19T02:06:11.852Z,98705.58
2019-03-19T02:07:15.041Z,98701.61
2019-03-19T02:08:17.844Z,98701.61
2019-03-19T02:09:20.660Z,98701.23
2019-03-19T02:10:23.506Z,98701.23
2019-03-19T02:11:26.314Z,98705.67
2019-03-19T02:12:29.183Z,98705.67
2019-03-19T02:13:32.291Z,98703.88
2019-03-19T02:14:35.540Z,98706.63
2019-03-19T02:15:38.460Z,98706.63
2019-03-19T02:16:41.273Z,98714.31
2019-03-19T02:17:44.111Z,98714.91
2019-03-19T02:18:47.364Z,98708.38
2019-03-19T02:19:50.462Z,98708.38
2019-03-19T02:20:53.795Z,98718.88
2019-03-19T02:21:56.668Z,98718.88
2019-03-19T02:22:59.536Z,98726.14
2019-03-19T02:24:02.705Z,98727.39
2019-03-19T02:25:05.528Z,98727.39
2019-03-19T02:26:16.320Z,98731.08
2019-03-19T02:27:13.292Z,98730.63
2019-03-19T02:28:16.113Z,98723.64
2019-03-19T02:29:19.424Z,98724.64
2019-03-19T02:30:22.245Z,98728.20
2019-03-19T02:31:25.963Z,98726.40
2019-03-19T02:32:29.084Z,98730.41
2019-03-19T02:33:32.041Z,98730.41
2019-03-19T02:34:35.238Z,98728.79
2019-03-19T02:35:38.444Z,98717.78
2019-03-19T02:36:41.276Z,98717.78
2019-03-19T02:37:44.110Z,98722.22
2019-03-19T02:38:47.287Z,98724.92
2019-03-19T02:39:50.138Z,98724.92
2019-03-19T02:40:52.963Z,98730.02
2019-03-19T02:41:55.805Z,98725.56
2019-03-19T02:42:59.254Z,98730.87
2019-03-19T02:44:02.199Z,98728.69
2019-03-19T02:45:05.005Z,98728.69
2019-03-19T02:46:08.201Z,98729.45
2019-03-19T02:47:11.367Z,98729.45
2019-03-19T02:48:14.206Z,98736.93
2019-03-19T02:49:17.125Z,98741.37
2019-03-19T02:50:20.267Z,98729.41
2019-03-19T02:51:23.088Z,98736.64
2019-03-19T02:52:25.941Z,98728.66
2019-03-19T02:53:29.712Z,98718.88
2019-03-19T02:54:33.089Z,98728.61
2019-03-19T02:55:35.962Z,98737.02
2019-03-19T02:56:39.128Z,98734.97
2019-03-19T02:57:42.363Z,98740.83
2019-03-19T02:58:45.644Z,98740.83
2019-03-19T02:59:49.347Z,98740.66
2019-03-19T03:00:52.173Z,98739.69
2019-03-19T03:01:54.964Z,98737.86
2019-03-19T03:02:58.086Z,98737.65
2019-03-19T03:04:00.909Z,98742.70
2019-03-19T03:05:04.204Z,98745.39
2019-03-19T03:06:07.026Z,98745.39
2019-03-19T03:07:09.849Z,98743.63
2019-03-19T03:08:12.689Z,98743.63
2019-03-19T03:09:15.823Z,98743.87
2019-03-19T03:10:18.715Z,98749.52
2019-03-19T03:11:21.609Z,98749.52
2019-03-19T03:12:24.481Z,98757.21
2019-03-19T03:13:27.327Z,98763.48
2019-03-19T03:14:30.168Z,98764.95
2019-03-19T03:15:33.315Z,98764.95
2019-03-19T03:16:36.220Z,98755.00
2019-03-19T03:17:39.042Z,98767.04
2019-03-19T03:18:41.892Z,98765.53
2019-03-19T03:19:44.694Z,98765.53
2019-03-19T03:20:47.861Z,98766.23
2019-03-19T03:21:51.065Z,98766.28
2019-03-19T03:22:53.900Z,98766.28
2019-03-19T03:23:56.757Z,98773.71
2019-03-19T03:24:59.959Z,98770.20
2019-03-19T03:26:02.876Z,98772.80
2019-03-19T03:27:05.804Z,98769.91
2019-03-19T03:28:08.931Z,98773.76
2019-03-19T03:29:11.707Z,98764.32
2019-03-19T03:30:14.574Z,98770.50
2019-03-19T03:31:17.472Z,98773.02
2019-03-19T03:32:20.814Z,98773.02
2019-03-19T03:33:24.084Z,98770.80
2019-03-19T03:34:27.399Z,98775.77
2019-03-19T03:35:30.270Z,98775.80
2019-03-19T03:36:33.111Z,98774.48
2019-03-19T03:37:38.288Z,98769.33
2019-03-19T03:38:41.153Z,98769.33
2019-03-19T03:39:44.623Z,98779.05
2019-03-19T03:40:47.459Z,98779.68
2019-03-19T03:41:50.294Z,98782.98
2019-03-19T03:42:53.196Z,98782.98
2019-03-19T03:43:56.005Z,98786.88
2019-03-19T03:44:58.838Z,98787.22
2019-03-19T03:46:01.646Z,98786.47
2019-03-19T03:47:04.467Z,98790.08
2019-03-19T03:48:07.846Z,98780.78
2019-03-19T03:49:10.669Z,98786.93
2019-03-19T03:50:13.535Z,98786.93
2019-03-19T03:51:19.512Z,98789.41
2019-03-19T03:52:23.104Z,98789.41
2019-03-19T03:53:25.980Z,98802.41
2019-03-19T03:54:29.721Z,98800.58
2019-03-19T03:55:33.661Z,98805.45
2019-03-19T03:56:38.034Z,98792.77
2019-03-19T03:57:43.970Z,98801.30
2019-03-19T03:58:59.880Z,98801.30
2019-03-19T03:59:54.466Z,98806.70
2019-03-19T04:00:57.384Z,98802.14
2019-03-19T04:02:00.211Z,98807.83
2019-03-19T04:03:03.123Z,98807.83
2019-03-19T04:04:08.391Z,98806.84
2019-03-19T04:05:11.507Z,98809.72
2019-03-19T04:06:14.446Z,98809.63
2019-03-19T04:07:17.290Z,98804.02
2019-03-19T04:08:20.490Z,98805.70
2019-03-19T04:09:23.347Z,98807.83
2019-03-19T04:10:26.252Z,98808.33
2019-03-19T04:11:29.364Z,98809.85
2019-03-19T04:12:32.199Z,98809.85
2019-03-19T04:13:34.997Z,98810.89
2019-03-19T04:14:37.916Z,98806.08
2019-03-19T04:15:40.763Z,98806.08
2019-03-19T04:16:44.438Z,98804.86
2019-03-19T04:17:47.995Z,98803.59
2019-03-19T04:18:51.096Z,98803.59
2019-03-19T04:19:54.353Z,98804.98
2019-03-19T04:21:00.450Z,98807.66
2019-03-19T04:22:03.969Z,98807.66
2019-03-19T04:23:07.103Z,98812.22
2019-03-19T04:24:10.214Z,98824.16
2019-03-19T04:25:13.366Z,98821.28
2019-03-19T04:26:16.261Z,98821.94
2019-03-19T04:27:19.523Z,98822.52
2019-03-19T04:28:22.435Z,98831.30
2019-03-19T04:29:25.323Z,98830.61
2019-03-19T04:30:28.509Z,98830.61
2019-03-19T04:31:31.703Z,98832.34
2019-03-19T04:32:34.594Z,98838.14
2019-03-19T04:33:37.463Z,98836.96
2019-03-19T04:34:40.304Z,98836.64
2019-03-19T04:35:43.220Z,98846.10
2019-03-19T04:36:47.952Z,98840.98
2019-03-19T04:37:50.971Z,98849.12
2019-03-19T04:38:53.875Z,98845.41
2019-03-19T04:39:56.772Z,98845.59
2019-03-19T04:40:59.623Z,98848.42
2019-03-19T04:42:02.466Z,98846.13
2019-03-19T04:43:05.651Z,98848.88
2019-03-19T04:44:08.970Z,98851.05
2019-03-19T04:45:11.809Z,98856.24
2019-03-19T04:46:15.014Z,98857.63
2019-03-19T04:47:18.272Z,98850.50
2019-03-19T04:48:27.081Z,98851.58
2019-03-19T04:49:29.918Z,98849.85
2019-03-19T04:50:33.117Z,98841.44
2019-03-19T04:51:37.890Z,98847.34
2019-03-19T04:52:44.165Z,98847.42
2019-03-19T04:53:47.426Z,98845.59
2019-03-19T04:54:50.573Z,98845.84
2019-03-19T04:55:53.410Z,98840.10
2019-03-19T04:56:56.357Z,98840.10
2019-03-19T04:57:59.538Z,98837.93
2019-03-19T04:59:02.343Z,98841.94
2019-03-19T05:00:05.199Z,98833.87
2019-03-19T05:01:08.383Z,98840.41
2019-03-19T05:02:11.318Z,98833.58
2019-03-19T05:03:14.121Z,98841.64
2019-03-19T05:04:16.941Z,98841.64
2019-03-19T05:05:19.758Z,98848.38
2019-03-19T05:06:22.576Z,98848.16
2019-03-19T05:07:27.481Z,98849.98
2019-03-19T05:08:30.656Z,98847.36
2019-03-19T05:09:33.517Z,98846.02
2019-03-19T05:10:36.699Z,98846.02
2019-03-19T05:11:39.591Z,98849.33
2019-03-19T05:12:42.790Z,98847.70
2019-03-19T05:13:46.438Z,98847.70
2019-03-19T05:14:49.279Z,98849.95
2019-03-19T05:15:52.143Z,98848.23
2019-03-19T05:16:55.399Z,98849.23
2019-03-19T05:17:58.246Z,98849.23
2019-03-19T05:19:01.483Z,98850.63
2019-03-19T05:20:04.627Z,98847.44
2019-03-19T05:21:07.459Z,98849.18
2019-03-19T05:22:10.314Z,98850.44
2019-03-19T05:23:13.908Z,98849.31
2019-03-19T05:24:18.180Z,98851.13
2019-03-19T05:25:22.242Z,98846.72
2019-03-19T05:26:30.347Z,98856.13
2019-03-19T05:27:40.568Z,98857.41
2019-03-19T05:28:46.502Z,98858.50
2019-03-19T05:29:50.985Z,98858.64
2019-03-19T05:30:53.803Z,98857.19
2019-03-19T05:31:56.650Z,98857.19
2019-03-19T05:33:02.467Z,98873.02
2019-03-19T05:34:05.336Z,98870.05
2019-03-19T05:35:08.413Z,98872.64
2019-03-19T05:36:11.379Z,98874.52
2019-03-19T05:37:14.204Z,98876.70
2019-03-19T05:38:17.109Z,98876.70
2019-03-19T05:39:20.258Z,98874.41
2019-03-19T05:40:23.181Z,98878.82
2019-03-19T05:41:26.476Z,98877.94
2019-03-19T05:42:29.736Z,98879.03
2019-03-19T05:43:32.599Z,98880.61
2019-03-19T05:44:35.456Z,98879.27
2019-03-19T05:45:38.927Z,98882.09
2019-03-19T05:46:41.757Z,98875.17
2019-03-19T05:47:45.016Z,98879.97
2019-03-19T05:48:48.224Z,98874.72
2019-03-19T05:49:51.068Z,98876.16
2019-03-19T05:50:57.079Z,98872.83
2019-03-19T05:52:00.293Z,98854.17
2019-03-19T05:53:04.296Z,98854.17
2019-03-19T05:54:07.109Z,98869.27
2019-03-19T05:55:09.924Z,98872.78
2019-03-19T05:56:13.121Z,98872.78
2019-03-19T05:57:17.838Z,98872.59
2019-03-19T05:58:21.422Z,98869.77
2019-03-19T05:59:24.340Z,98874.47
2019-03-19T06:00:29.424Z,98875.95
2019-03-19T06:01:34.767Z,98879.67
2019-03-19T06:02:37.586Z,98890.81
2019-03-19T06:03:40.488Z,98890.81
2019-03-19T06:04:44.094Z,98891.02
2019-03-19T06:05:46.920Z,98889.73
2019-03-19T06:06:49.750Z,98898.75
2019-03-19T06:07:52.661Z,98898.75
2019-03-19T06:08:55.552Z,98898.84
2019-03-19T06:10:02.102Z,98907.91
2019-03-19T06:11:06.867Z,98903.79
2019-03-19T06:12:10.191Z,98898.20
2019-03-19T06:13:13.071Z,98902.55
2019-03-19T06:14:15.956Z,98903.11
2019-03-19T06:15:18.783Z,98907.22
2019-03-19T06:16:21.620Z,98908.39
2019-03-19T06:17:24.874Z,98904.48
2019-03-19T06:18:35.075Z,98906.80
2019-03-19T06:19:33.217Z,98906.70
2019-03-19T06:20:36.054Z,98910.58
2019-03-19T06:21:38.915Z,98911.97
2019-03-19T06:22:41.787Z,98913.23
2019-03-19T06:23:44.996Z,98916.46
2019-03-19T06:24:47.845Z,98913.88
2019-03-19T06:25:50.733Z,98909.95
2019-03-19T06:26:53.714Z,98905.65
2019-03-19T06:28:00.711Z,98895.56
2019-03-19T06:29:01.498Z,98912.36
2019-03-19T06:43:54.125Z,98921.55
2019-03-19T06:44:54.447Z,98930.12
2019-03-19T06:46:00.337Z,98930.12
2019-03-19T06:47:03.159Z,98929.47
2019-03-19T06:48:06.481Z,98928.22
2019-03-19T06:49:14.852Z,98928.22
2019-03-19T06:50:16.849Z,98938.55
2019-03-19T06:51:19.661Z,98937.47
2019-03-19T06:52:22.889Z,98941.89
2019-03-19T06:53:25.774Z,98941.89
2019-03-19T06:54:30.825Z,98941.98
2019-03-19T06:55:33.953Z,98935.49
2019-03-19T06:56:36.767Z,98946.03
2019-03-19T06:57:39.691Z,98946.03
2019-03-19T06:58:43.464Z,98948.41
2019-03-19T06:59:47.551Z,98948.87
2019-03-19T07:00:50.445Z,98948.16
2019-03-19T07:01:56.891Z,98947.09
2019-03-19T07:02:59.749Z,98947.57
2019-03-19T07:04:02.608Z,98951.25
2019-03-19T07:05:08.736Z,98951.25
2019-03-19T07:06:13.856Z,98945.14
2019-03-19T07:07:18.909Z,98946.36
2019-03-19T07:08:22.187Z,98958.50
2019-03-19T07:09:28.321Z,98956.95
2019-03-19T07:10:32.324Z,98959.13
2019-03-19T07:11:35.233Z,98959.09
2019-03-19T07:12:38.115Z,98961.19
2019-03-19T07:13:43.847Z,98956.37
2019-03-19T07:14:49.690Z,98965.41
2019-03-19T07:15:56.721Z,98966.20
2019-03-19T07:17:01.191Z,98966.20
2019-03-19T07:18:04.616Z,98974.52
2019-03-19T07:19:10.231Z,98974.52
2019-03-19T07:20:14.467Z,98972.06
2019-03-19T07:21:17.741Z,98972.06
2019-03-19T07:22:20.581Z,98964.17
2019-03-19T07:23:23.448Z,98972.94
2019-03-19T07:24:35.490Z,98972.94
2019-03-19T07:25:38.400Z,98977.93
2019-03-19T07:26:41.304Z,98977.93
2019-03-19T07:27:46.015Z,98983.02
2019-03-19T07:28:50.238Z,98985.45
2019-03-19T07:29:53.471Z,98985.45
2019-03-19T07:30:56.365Z,98988.33
2019-03-19T07:31:59.209Z,98991.05
2019-03-19T07:33:02.455Z,98994.87
2019-03-19T07:34:05.556Z,98994.87
2019-03-19T07:35:08.390Z,98996.28
2019-03-19T07:36:11.279Z,98999.98
2019-03-19T07:37:15.177Z,98996.15
2019-03-19T07:38:18.031Z,98996.15
2019-03-19T07:39:20.922Z,98994.67
2019-03-19T07:40:25.898Z,98988.47
2019-03-19T07:41:28.813Z,98986.84
2019-03-19T07:42:31.797Z,98984.38
2019-03-19T07:43:34.738Z,98986.56
2019-03-19T07:44:39.207Z,98996.23
2019-03-19T07:45:42.463Z,98998.88
2019-03-19T07:46:46.118Z,98998.88
2019-03-19T07:47:49.007Z,98998.70
2019-03-19T07:48:52.370Z,99002.87
2019-03-19T07:49:55.195Z,99007.19
2019-03-19T07:50:58.032Z,98995.80
2019-03-19T07:52:00.996Z,98995.80
2019-03-19T07:53:07.104Z,99004.09
2019-03-19T07:54:10.003Z,99003.25
2019-03-19T07:55:13.566Z,99006.69
2019-03-19T07:56:16.424Z,99000.63
2019-03-19T07:57:19.265Z,99006.07
2019-03-19T07:58:35.829Z,99001.58
2019-03-19T07:59:29.707Z,99001.58
2019-03-19T08:00:32.945Z,99008.23
2019-03-19T08:01:40.067Z,99003.16
2019-03-19T08:02:45.126Z,99003.16
2019-03-19T08:03:48.505Z,99009.86
2019-03-19T08:04:54.613Z,99011.08
2019-03-19T08:05:57.794Z,99011.47
2019-03-19T08:07:00.631Z,99008.28
2019-03-19T08:08:10.228Z,99015.91
2019-03-19T08:09:15.847Z,99015.40
2019-03-19T08:10:18.783Z,99023.85
2019-03-19T08:11:21.673Z,99023.23
2019-03-19T08:12:25.047Z,99017.36
2019-03-19T08:13:27.965Z,99023.31
2019-03-19T08:14:30.856Z,99025.45
2019-03-19T08:15:33.751Z,99025.45
2019-03-19T08:16:36.592Z,99025.75
2019-03-19T08:17:42.800Z,99033.66
2019-03-19T08:18:49.697Z,99031.52
2019-03-19T08:19:53.189Z,99031.52
2019-03-19T08:21:01.089Z,99035.15
2019-03-19T08:22:03.924Z,99033.84
2019-03-19T08:23:08.970Z,99039.39
2019-03-19T08:24:13.006Z,99034.82
2019-03-19T08:25:27.270Z,99034.82
2019-03-19T08:26:30.463Z,99035.84
2019-03-19T08:27:33.402Z,99036.16
2019-03-19T08:28:36.323Z,99033.48
2019-03-19T08:29:39.416Z,99035.25
2019-03-19T08:30:42.699Z,99035.25
2019-03-19T08:31:46.005Z,99028.73
2019-03-19T08:32:49.199Z,99034.89
2019-03-19T08:33:52.501Z,99034.41
2019-03-19T08:34:58.524Z,99032.06
2019-03-19T08:36:09.427Z,99032.06
2019-03-19T08:37:09.298Z,99023.95
2019-03-19T08:38:12.343Z,99025.16
2019-03-19T08:39:15.437Z,99025.16
2019-03-19T08:40:18.318Z,99032.68
2019-03-19T08:41:21.283Z,99035.58
2019-03-19T08:42:26.360Z,99034.50
2019-03-19T08:43:29.647Z,99037.92
2019-03-19T08:44:32.567Z,99036.70
2019-03-19T08:45:35.827Z,99037.32
2019-03-19T08:46:38.854Z,99033.93
2019-03-19T08:47:41.718Z,99036.06
2019-03-19T08:48:44.844Z,99043.84
2019-03-19T08:49:47.705Z,99043.84
2019-03-19T08:50:50.597Z,99047.64
2019-03-19T08:51:55.072Z,99033.94
2019-03-19T08:52:58.684Z,99033.94
2019-03-19T08:54:01.551Z,99035.97
2019-03-19T08:55:06.920Z,99047.15
2019-03-19T08:56:15.827Z,99043.12
2019-03-19T08:57:20.120Z,99035.50
2019-03-19T08:58:26.273Z,99044.18
2019-03-19T08:59:33.179Z,99044.18
2019-03-19T09:00:41.054Z,99048.97
2019-03-19T09:01:41.574Z,99048.97
2019-03-19T09:02:44.418Z,99046.52
2019-03-19T09:03:50.117Z,99043.55
2019-03-19T09:04:57.209Z,99043.55
2019-03-19T09:06:00.460Z,99043.06
2019-03-19T09:07:06.478Z,99032.80
2019-03-19T09:08:12.179Z,99040.88
2019-03-19T09:09:15.228Z,99036.98
2019-03-19T09:10:48.163Z,99044.23
2019-03-19T09:11:27.066Z,99044.23
2019-03-19T09:12:30.450Z,99039.45
2019-03-19T09:13:33.686Z,99041.64
2019-03-19T09:14:36.568Z,99041.64
2019-03-19T09:15:41.525Z,99039.23
2019-03-19T09:16:47.071Z,99040.81
2019-03-19T09:17:50.006Z,99040.81
2019-03-19T09:18:53.419Z,99043.05
2019-03-19T09:19:56.647Z,99037.27
2019-03-19T09:20:59.581Z,99038.03
2019-03-19T09:22:04.407Z,99038.03
2019-03-19T09:23:07.773Z,99044.15
2019-03-19T09:24:13.208Z,99044.38
2019-03-19T09:25:16.063Z,99044.38
2019-03-19T09:26:23.068Z,99037.30
2019-03-19T09:27:27.738Z,99034.95
2019-03-19T09:28:32.342Z,99034.95
2019-03-19T09:29:35.266Z,99036.36
2019-03-19T09:30:40.367Z,99037.38
2019-03-19T09:31:43.225Z,99042.72
2019-03-19T09:32:46.631Z,99042.72
2019-03-19T09:33:49.771Z,99048.51
2019-03-19T09:34:52.653Z,99048.25
2019-03-19T09:36:10.222Z,99045.67
2019-03-19T09:37:14.073Z,99048.62
2019-03-19T09:38:16.935Z,99044.33
2019-03-19T09:39:20.404Z,99044.33
2019-03-19T09:40:28.424Z,99035.52
2019-03-19T09:41:31.771Z,99033.95
2019-03-19T09:42:35.771Z,99046.80
2019-03-19T09:43:38.640Z,99042.73
2019-03-19T09:44:41.700Z,99038.66
2019-03-19T09:45:44.688Z,99046.66
2019-03-19T09:46:47.534Z,99043.16
2019-03-19T09:47:50.375Z,99042.99
2019-03-19T09:48:53.501Z,99042.99
2019-03-19T09:49:56.453Z,99038.73
2019-03-19T09:50:59.443Z,99034.75
2019-03-19T09:52:03.033Z,99033.02
2019-03-19T09:53:06.436Z,99040.02
2019-03-19T09:54:09.304Z,99040.02
2019-03-19T09:55:12.219Z,99026.70
2019-03-19T09:56:15.513Z,99037.97
2019-03-19T09:57:18.401Z,99037.97
2019-03-19T09:58:24.560Z,99031.16
2019-03-19T09:59:27.998Z,99036.31
2019-03-19T10:00:30.814Z,99036.31
2019-03-19T10:01:33.760Z,99047.27
2019-03-19T10:02:36.595Z,99045.34
2019-03-19T10:03:39.411Z,99052.55
2019-03-19T10:04:44.893Z,99045.33
2019-03-19T10:05:47.783Z,99061.50
2019-03-19T10:06:50.732Z,99050.13
2019-03-19T10:07:55.552Z,99038.25
2019-03-19T10:08:59.756Z,99047.86
2019-03-19T10:10:03.056Z,99047.86
2019-03-19T10:11:08.886Z,99046.53
2019-03-19T10:12:12.187Z,99039.48
2019-03-19T10:13:15.569Z,99053.12
2019-03-19T10:14:21.244Z,99051.78
2019-03-19T10:15:25.366Z,99051.78
2019-03-19T10:16:28.316Z,99058.20
2019-03-19T10:17:31.172Z,99058.20
2019-03-19T10:18:34.033Z,99060.09
2019-03-19T10:19:39.797Z,99058.06
2019-03-19T10:20:43.179Z,99050.73
2019-03-19T10:21:49.138Z,99063.31
2019-03-19T10:22:55.431Z,99065.86
2019-03-19T10:23:58.331Z,99065.61
2019-03-19T10:25:02.978Z,99062.28
2019-03-19T10:26:06.998Z,99062.28
2019-03-19T10:27:09.867Z,99066.80
2019-03-19T10:28:12.755Z,99062.56
2019-03-19T10:29:37.586Z,99065.78
2019-03-19T10:30:31.697Z,99055.79
2019-03-19T10:31:34.987Z,99057.95
2019-03-19T10:32:39.302Z,99060.15
2019-03-19T10:33:42.182Z,99054.54
2019-03-19T10:34:45.082Z,99051.64
2019-03-19T10:35:47.894Z,99045.89
2019-03-19T10:36:50.868Z,99045.89
2019-03-19T10:37:53.710Z,99046.74
2019-03-19T10:38:56.909Z,99045.80
2019-03-19T10:39:59.727Z,99053.55
2019-03-19T10:41:02.605Z,99056.25
2019-03-19T10:42:08.561Z,99056.04
2019-03-19T10:43:11.426Z,99050.13
2019-03-19T10:44:14.736Z,99053.69
2019-03-19T10:45:17.547Z,99047.97
2019-03-19T10:46:22.299Z,99047.97
2019-03-19T10:47:27.100Z,99051.64
2019-03-19T10:48:33.276Z,99037.70
2019-03-19T10:49:39.608Z,99037.70
2019-03-19T10:50:42.847Z,99042.52
2019-03-19T10:51:45.711Z,99039.20
2019-03-19T10:52:49.165Z,99039.20
2019-03-19T10:53:52.072Z,99043.08
2019-03-19T10:54:54.939Z,99043.08
2019-03-19T10:55:58.114Z,99046.31
2019-03-19T10:57:03.440Z,99039.03
2019-03-19T10:58:10.889Z,99033.55
2019-03-19T10:59:26.160Z,99045.00
2019-03-19T11:00:29.589Z,99053.20
2019-03-19T11:01:35.492Z,99047.97
2019-03-19T11:02:40.155Z,99050.48
2019-03-19T11:03:43.070Z,99044.00
2019-03-19T11:04:45.971Z,99047.83
2019-03-19T11:05:51.834Z,99044.53
2019-03-19T11:06:54.596Z,99050.96
2019-03-19T11:07:57.897Z,99055.19
2019-03-19T11:09:02.974Z,99055.19
2019-03-19T11:10:06.919Z,99055.61
2019-03-19T11:11:16.370Z,99055.61
2019-03-19T11:12:19.100Z,99062.13
2019-03-19T11:13:21.815Z,99062.13
2019-03-19T11:14:24.930Z,99071.98
2019-03-19T11:15:31.384Z,99076.46
2019-03-19T11:16:35.295Z,99076.38
2019-03-19T11:17:38.526Z,99076.52
2019-03-19T11:18:42.013Z,99075.56
2019-03-19T11:19:49.898Z,99081.77
2019-03-19T11:20:54.937Z,99074.06
2019-03-19T11:21:57.767Z,99070.73
2019-03-19T11:23:02.956Z,99075.86
2019-03-19T11:24:10.926Z,99070.91
2019-03-19T11:25:16.584Z,99066.74
2019-03-19T11:26:22.785Z,99072.56
2019-03-19T11:27:25.977Z,99065.59
2019-03-19T11:28:41.816Z,99059.58
2019-03-19T11:29:44.988Z,99064.88
2019-03-19T11:42:54.698Z,99058.56
2019-03-19T11:44:00.380Z,99078.28
2019-03-19T11:45:09.440Z,99075.68
2019-03-19T11:46:12.248Z,99075.73
2019-03-19T11:47:17.655Z,99078.97
2019-03-19T11:48:25.850Z,99069.88
2019-03-19T11:49:29.058Z,99066.00
2019-03-19T11:50:34.234Z,99058.78
2019-03-19T11:51:39.322Z,99067.17
2019-03-19T11:52:42.111Z,99063.93
2019-03-19T11:53:45.461Z,99067.00
2019-03-19T11:54:53.638Z,99067.00
2019-03-19T11:55:56.387Z,99064.14
2019-03-19T11:56:59.150Z,99060.50
2019-03-19T11:58:02.135Z,99058.17
2019-03-19T11:59:05.479Z,99045.69
2019-03-19T12:00:11.533Z,99056.77
2019-03-19T12:01:13.412Z,99053.30
2019-03-19T12:02:25.629Z,99057.89
2019-03-19T12:03:23.358Z,99060.92
2019-03-19T12:04:27.226Z,99063.91
2019-03-19T12:05:30.095Z,99072.08
2019-03-19T12:06:32.807Z,99064.70
2019-03-19T12:07:39.548Z,99062.52
2019-03-19T12:08:45.894Z,99065.02
2019-03-19T12:09:48.854Z,99061.80
2019-03-19T12:10:52.145Z,99051.81
2019-03-19T12:11:58.017Z,99046.02
2019-03-19T12:13:00.718Z,99056.16
2019-03-19T12:14:04.257Z,99054.46
2019-03-19T12:15:07.148Z,99051.41
2019-03-19T12:16:10.321Z,99051.41
2019-03-19T12:17:13.565Z,99042.61
2019-03-19T12:18:16.459Z,99033.94
2019-03-19T12:19:19.473Z,99040.41
2019-03-19T12:20:25.625Z,99040.41
2019-03-19T12:21:28.709Z,99044.02
2019-03-19T12:22:32.937Z,99036.27
2019-03-19T12:23:37.088Z,99042.32
2019-03-19T12:24:39.981Z,99041.42
2019-03-19T12:25:46.152Z,99039.93
2019-03-19T12:26:53.688Z,99041.88
2019-03-19T12:27:58.961Z,99047.33
2019-03-19T12:29:07.524Z,99042.89
2019-03-19T12:30:22.932Z,99041.93
2019-03-19T12:31:25.141Z,99035.52
2019-03-19T12:32:28.076Z,99039.03
2019-03-19T12:33:40.421Z,99039.03
2019-03-19T12:34:36.178Z,99035.84
2019-03-19T12:35:39.087Z,99038.88
2019-03-19T12:36:41.871Z,99031.44
2019-03-19T12:37:45.819Z,99031.97
2019-03-19T12:38:48.623Z,99031.97
2019-03-19T12:39:51.526Z,99039.08
2019-03-19T12:40:54.269Z,99039.08
2019-03-19T12:41:57.178Z,99042.72
2019-03-19T12:43:02.242Z,99042.72
2019-03-19T12:44:06.589Z,99041.48
2019-03-19T12:45:09.720Z,99038.88
2019-03-19T12:46:12.551Z,99038.34
2019-03-19T12:47:24.816Z,99018.36
2019-03-19T12:48:29.795Z,99027.50
2019-03-19T12:49:32.775Z,99027.50
2019-03-19T12:50:38.438Z,99018.11
2019-03-19T12:51:41.120Z,99022.42
2019-03-19T12:52:43.918Z,99038.04
2019-03-19T12:53:49.681Z,99024.20
2019-03-19T12:54:52.369Z,99024.95